createdAt,value
2019-02-14T00:00:02.925Z,-0.31
2019-02-14T00:05:01.992Z,-0.26
2019-02-14T00:09:59.771Z,-0.45
2019-02-14T00:14:56.875Z,-0.81
2019-02-14T00:19:57.182Z,-1.09
2019-02-14T00:24:55.821Z,-0.85
2019-02-14T00:29:57.777Z,-0.64
2019-02-14T00:35:08.770Z,-0.56
2019-02-14T00:40:23.142Z,-0.61
2019-02-14T00:45:32.184Z,-0.46
2019-02-14T00:50:39.295Z,-0.29
2019-02-14T00:55:41.168Z,-0.73
2019-02-14T01:00:39.469Z,-1.00
2019-02-14T01:05:38.183Z,-0.92
2019-02-14T01:10:34.230Z,-0.91
2019-02-14T01:15:35.393Z,-0.70
2019-02-14T01:20:43.611Z,-0.86
2019-02-14T01:25:36.946Z,-0.59
2019-02-14T01:30:48.162Z,-0.78
2019-02-14T01:35:59.011Z,-0.82
2019-02-14T01:41:02.781Z,-0.86
2019-02-14T01:46:02.750Z,-0.90
2019-02-14T01:51:04.445Z,-0.56
2019-02-14T01:56:16.345Z,-0.71
2019-02-14T02:01:27.376Z,-0.83
2019-02-14T02:06:34.528Z,-1.21
2019-02-14T02:11:36.373Z,-1.28
2019-02-14T02:16:45.483Z,-1.21
2019-02-14T02:21:49.277Z,-1.16
2019-02-14T02:26:53.844Z,-0.92
2019-02-14T02:32:02.329Z,-0.86
2019-02-14T02:44:03.093Z,-1.21
2019-02-14T02:49:07.217Z,-1.54
2019-02-14T02:54:14.257Z,-1.62
2019-02-14T02:59:14.308Z,-1.46
2019-02-14T03:04:17.983Z,-1.46
2019-02-14T03:09:19.507Z,-1.27
2019-02-14T03:14:23.102Z,-1.33
2019-02-14T03:19:29.694Z,-1.46
2019-02-14T03:24:37.180Z,-1.59
2019-02-14T03:29:41.373Z,-1.45
2019-02-14T03:34:49.099Z,-1.34
2019-02-14T03:40:06.679Z,-1.53
2019-02-14T03:45:20.225Z,-1.27
2019-02-14T03:50:21.870Z,-1.36
2019-02-14T03:55:24.074Z,-1.33
2019-02-14T04:00:32.448Z,-1.64
2019-02-14T04:05:43.948Z,-1.80
2019-02-14T04:16:08.582Z,-1.55
2019-02-14T04:21:16.172Z,-1.65
2019-02-14T04:26:28.686Z,-1.75
2019-02-14T04:32:04.465Z,-1.96
2019-02-14T04:37:17.880Z,-1.69
2019-02-14T04:42:25.114Z,-1.54
2019-02-14T04:47:53.099Z,-1.41
2019-02-14T04:53:15.882Z,-1.40
2019-02-14T05:03:56.902Z,-1.87
2019-02-14T05:09:13.559Z,-2.09
2019-02-14T05:14:32.644Z,-2.01
2019-02-14T05:19:53.621Z,-1.73
2019-02-14T05:30:52.959Z,-2.15
2019-02-14T05:36:00.078Z,-2.12
2019-02-14T05:41:11.902Z,-1.80
2019-02-14T05:46:18.116Z,-1.64
2019-02-14T05:51:30.752Z,-1.76
2019-02-14T05:56:42.384Z,-1.94
2019-02-14T06:02:21.533Z,-1.90
2019-02-14T06:07:28.195Z,-1.89
2019-02-14T06:12:38.224Z,-1.93
2019-02-14T06:17:55.920Z,-1.94
2019-02-14T06:23:22.477Z,-2.00
2019-02-14T06:34:46.471Z,-1.74
2019-02-14T06:39:42.370Z,-1.69
2019-02-14T06:44:47.217Z,-1.74
2019-02-14T06:49:50.696Z,-1.82
2019-02-14T06:54:56.792Z,-1.88
2019-02-14T07:00:23.117Z,-2.00
2019-02-14T07:05:26.304Z,-1.80
2019-02-14T07:10:39.956Z,-1.76
2019-02-14T07:15:49.289Z,-1.82
2019-02-14T07:20:53.950Z,-1.54
2019-02-14T07:26:04.166Z,-1.37
2019-02-14T07:31:20.259Z,-1.36
2019-02-14T07:36:25.394Z,-1.25
2019-02-14T07:41:29.330Z,-1.04
2019-02-14T07:46:59.808Z,-0.84
2019-02-14T07:52:06.387Z,-0.58
2019-02-14T07:57:11.173Z,-0.38
2019-02-14T08:02:29.507Z,-0.25
2019-02-14T08:07:23.478Z,-0.07
2019-02-14T08:55:12.525Z,2.19
2019-02-14T09:00:15.246Z,2.35
2019-02-14T09:05:16.809Z,2.67
2019-02-14T09:10:18.448Z,3.04
2019-02-14T09:15:20.418Z,3.40
2019-02-14T09:20:25.993Z,3.60
2019-02-14T09:25:25.411Z,3.93
2019-02-14T09:30:21.502Z,3.79
2019-02-14T09:35:17.431Z,3.63
2019-02-14T09:40:14.008Z,3.61
2019-02-14T09:45:11.397Z,3.91
2019-02-14T09:50:09.382Z,4.34
2019-02-14T09:55:05.759Z,4.30
2019-02-14T10:00:01.836Z,4.36
2019-02-14T10:04:58.211Z,4.46
2019-02-14T10:09:54.115Z,4.47
2019-02-14T10:14:50.281Z,4.50
2019-02-14T10:19:48.211Z,4.28
2019-02-14T10:24:44.124Z,4.15
2019-02-14T10:29:40.485Z,4.32
2019-02-14T10:34:36.535Z,4.31
2019-02-14T10:39:34.587Z,4.36
2019-02-14T10:44:30.537Z,4.52
2019-02-14T10:49:27.164Z,4.58
2019-02-14T10:54:23.034Z,4.60
2019-02-14T10:59:18.921Z,4.79
2019-02-14T11:04:14.839Z,4.87
2019-02-14T11:09:10.860Z,4.80
2019-02-14T11:14:07.237Z,4.87
2019-02-14T11:19:03.121Z,4.97
2019-02-14T11:23:59.200Z,5.17
2019-02-14T11:28:55.059Z,5.17
2019-02-14T11:33:50.910Z,5.23
2019-02-14T11:38:46.840Z,5.16
2019-02-14T11:43:42.772Z,5.16
2019-02-14T11:48:38.776Z,5.47
2019-02-14T11:53:34.809Z,5.61
2019-02-14T11:58:30.719Z,5.63
2019-02-14T12:03:27.788Z,5.75
2019-02-14T12:08:23.662Z,5.94
2019-02-14T12:13:19.661Z,5.99
2019-02-14T12:18:18.491Z,6.05
2019-02-14T12:23:16.460Z,6.08
2019-02-14T12:28:18.305Z,6.21
2019-02-14T12:33:16.443Z,6.12
2019-02-14T12:38:15.270Z,5.99
2019-02-14T12:43:11.123Z,6.05
2019-02-14T12:48:08.501Z,5.63
2019-02-14T12:53:04.763Z,5.93
2019-02-14T12:58:00.871Z,6.29
2019-02-14T13:02:56.695Z,6.30
2019-02-14T13:07:54.631Z,6.50
2019-02-14T13:12:53.363Z,6.64
2019-02-14T13:17:49.478Z,6.53
2019-02-14T13:22:45.425Z,6.70
2019-02-14T13:27:41.321Z,6.96
2019-02-14T13:32:37.556Z,7.29
2019-02-14T13:37:33.512Z,7.58
2019-02-14T13:42:29.685Z,7.64
2019-02-14T13:47:27.163Z,7.83
2019-02-14T13:52:23.184Z,7.97
2019-02-14T13:57:19.446Z,7.99
2019-02-14T14:02:15.373Z,8.09
2019-02-14T14:07:11.237Z,8.02
2019-02-14T14:12:07.341Z,7.82
2019-02-14T14:17:03.282Z,7.85
2019-02-14T14:21:59.263Z,7.70
2019-02-14T14:26:55.191Z,7.66
2019-02-14T14:31:51.253Z,7.95
2019-02-14T14:36:47.194Z,8.19
2019-02-14T14:41:43.003Z,8.24
2019-02-14T14:47:06.825Z,8.31
2019-02-14T14:52:02.851Z,8.30
2019-02-14T14:56:58.904Z,8.33
2019-02-14T15:01:54.909Z,8.19
2019-02-14T15:06:50.914Z,8.16
2019-02-14T15:11:46.752Z,8.15
2019-02-14T15:16:42.948Z,7.88
2019-02-14T15:21:38.880Z,7.37
2019-02-14T15:26:34.785Z,7.26
2019-02-14T15:31:32.055Z,6.96
2019-02-14T15:36:29.547Z,6.79
2019-02-14T15:41:25.299Z,6.62
2019-02-14T15:46:21.114Z,6.44
2019-02-14T15:51:18.322Z,6.26
2019-02-14T15:56:14.757Z,6.14
2019-02-14T16:01:13.743Z,6.02
2019-02-14T16:06:09.948Z,5.88
2019-02-14T16:11:10.171Z,5.70
2019-02-14T16:16:06.166Z,5.61
2019-02-14T16:21:03.642Z,5.57
2019-02-14T16:25:59.783Z,5.43
2019-02-14T16:30:56.901Z,5.29
2019-02-14T16:35:52.846Z,5.09
2019-02-14T16:40:53.059Z,4.97
2019-02-14T16:45:49.046Z,4.99
2019-02-14T16:50:44.936Z,4.93
2019-02-14T16:55:40.806Z,4.76
2019-02-14T17:00:36.882Z,4.84
2019-02-14T17:05:36.951Z,4.77
2019-02-14T17:10:37.065Z,4.52
2019-02-14T17:15:30.352Z,4.45
2019-02-14T17:20:26.281Z,4.42
2019-02-14T17:25:23.681Z,4.36
2019-02-14T17:35:50.941Z,3.99
2019-02-14T17:40:47.453Z,3.84
2019-02-14T17:50:57.168Z,3.60
2019-02-14T17:55:53.006Z,3.58
2019-02-14T18:00:48.903Z,3.50
2019-02-14T18:05:46.384Z,3.43
2019-02-14T18:10:42.490Z,3.43
2019-02-14T18:15:41.272Z,3.34
2019-02-14T18:21:04.100Z,3.17
2019-02-14T18:26:00.059Z,3.12
2019-02-14T18:30:56.024Z,2.99
2019-02-14T18:35:51.939Z,2.97
2019-02-14T18:40:48.578Z,2.66
2019-02-14T18:45:44.582Z,2.73
2019-02-14T18:50:40.705Z,2.64
2019-02-14T18:55:36.855Z,2.53
2019-02-14T19:00:33.035Z,2.59
2019-02-14T19:05:29.133Z,2.52
2019-02-14T19:10:25.254Z,2.58
2019-02-14T19:15:23.092Z,2.40
2019-02-14T19:20:19.011Z,2.25
2019-02-14T19:25:19.355Z,2.03
2019-02-14T19:30:16.139Z,1.94
2019-02-14T19:35:25.149Z,1.79
2019-02-14T19:40:21.233Z,1.97
2019-02-14T19:45:17.288Z,1.97
2019-02-14T19:50:16.613Z,1.88
2019-02-14T19:56:19.581Z,1.79
2019-02-14T20:01:12.890Z,1.89
2019-02-14T20:06:10.811Z,1.68
2019-02-14T20:11:09.854Z,1.72
2019-02-14T20:16:05.851Z,1.82
2019-02-14T20:21:02.958Z,1.91
2019-02-14T20:26:01.699Z,1.77
2019-02-14T20:31:00.291Z,1.63
2019-02-14T20:35:56.370Z,1.55
2019-02-14T20:40:54.435Z,1.55
2019-02-14T20:45:50.588Z,1.48
2019-02-14T20:50:48.201Z,1.36
2019-02-14T20:55:45.137Z,1.25
2019-02-14T21:00:41.296Z,1.19
2019-02-14T21:05:37.334Z,0.98
2019-02-14T21:10:36.551Z,1.07
2019-02-14T21:15:32.633Z,0.83
2019-02-14T21:20:28.756Z,0.79
2019-02-14T21:25:24.668Z,0.74
2019-02-14T21:30:26.845Z,0.89
2019-02-14T21:35:35.078Z,0.99
2019-02-14T21:40:53.251Z,1.07
2019-02-14T21:45:51.324Z,1.14
2019-02-14T21:50:53.481Z,1.17
2019-02-14T21:55:49.323Z,0.82
2019-02-14T22:00:45.492Z,0.69
2019-02-14T22:05:41.584Z,0.49
2019-02-14T22:10:37.783Z,0.52
2019-02-14T22:15:33.759Z,0.61
2019-02-14T22:20:29.663Z,0.55
2019-02-14T22:25:25.486Z,0.58
2019-02-14T22:30:21.627Z,0.56
2019-02-14T22:35:20.664Z,0.56
2019-02-14T22:40:16.799Z,0.37
2019-02-14T22:45:15.918Z,0.39
2019-02-14T22:50:14.857Z,0.54
2019-02-14T22:55:11.153Z,0.28
2019-02-14T23:00:31.336Z,0.38
2019-02-14T23:05:33.525Z,0.45
2019-02-14T23:10:39.116Z,0.44
2019-02-14T23:15:39.946Z,0.37
2019-02-14T23:20:47.930Z,0.34
2019-02-14T23:25:50.870Z,0.34
2019-02-14T23:30:51.300Z,0.11
2019-02-14T23:35:51.276Z,0.15
2019-02-14T23:40:50.352Z,0.01
2019-02-14T23:45:50.723Z,0.20
2019-02-14T23:50:51.831Z,0.16
2019-02-14T23:55:47.854Z,0.21
